createdAt,value
2023-04-27T00:01:12.286Z,20.85
2023-04-27T00:03:39.706Z,20.48
2023-04-27T00:06:07.469Z,20.98
2023-04-27T00:08:34.453Z,21.25
2023-04-27T00:11:01.168Z,21.50
2023-04-27T00:13:27.980Z,23.00
2023-04-27T00:15:54.690Z,23.40
2023-04-27T00:18:21.342Z,22.38
2023-04-27T00:20:48.116Z,24.33
2023-04-27T00:23:14.757Z,24.20
2023-04-27T00:25:41.817Z,23.52
2023-04-27T00:28:08.415Z,22.75
2023-04-27T00:30:35.866Z,22.90
2023-04-27T00:33:02.535Z,22.67
2023-04-27T00:35:29.312Z,23.40
2023-04-27T00:37:57.825Z,23.13
2023-04-27T00:40:25.136Z,23.63
2023-04-27T00:42:52.734Z,23.40
2023-04-27T00:45:19.378Z,22.95
2023-04-27T00:47:46.132Z,22.50
2023-04-27T00:50:12.885Z,23.55
2023-04-27T00:52:40.680Z,23.38
2023-04-27T00:55:09.415Z,22.65
2023-04-27T00:57:36.128Z,24.52
2023-04-27T01:00:07.116Z,24.60
2023-04-27T01:02:35.943Z,23.77
2023-04-27T01:05:03.573Z,22.70
2023-04-27T01:07:30.377Z,23.75
2023-04-27T01:09:58.093Z,23.08
2023-04-27T01:12:25.016Z,22.95
2023-04-27T01:14:51.730Z,23.33
2023-04-27T01:17:18.478Z,23.33
2023-04-27T01:19:45.189Z,24.35
2023-04-27T01:22:11.957Z,23.40
2023-04-27T01:24:38.667Z,23.60
2023-04-27T01:27:05.518Z,24.40
2023-04-27T01:29:32.342Z,23.55
2023-04-27T01:31:59.099Z,22.85
2023-04-27T01:34:25.912Z,23.85
2023-04-27T01:36:52.518Z,24.17
2023-04-27T01:39:21.406Z,23.05
2023-04-27T01:41:48.197Z,22.42
2023-04-27T01:44:14.992Z,24.75
2023-04-27T01:46:41.853Z,23.85
2023-04-27T01:49:08.657Z,23.90
2023-04-27T01:51:35.523Z,23.75
2023-04-27T01:54:02.272Z,24.77
2023-04-27T01:56:28.937Z,25.52
2023-04-27T01:58:55.948Z,23.77
2023-04-27T02:01:22.802Z,25.33
2023-04-27T02:03:49.635Z,24.20
2023-04-27T02:06:16.537Z,26.25
2023-04-27T02:08:43.229Z,24.63
2023-04-27T02:11:09.858Z,22.13
2023-04-27T02:13:36.528Z,22.35
2023-04-27T02:16:04.217Z,23.98
2023-04-27T02:18:32.308Z,23.92
2023-04-27T02:20:58.945Z,24.05
2023-04-27T02:23:25.568Z,25.00
2023-04-27T02:25:52.255Z,25.20
2023-04-27T02:28:18.865Z,24.30
2023-04-27T02:30:46.052Z,25.38
2023-04-27T02:33:13.028Z,24.27
2023-04-27T02:35:39.809Z,23.48
2023-04-27T02:38:06.580Z,23.48
2023-04-27T02:40:36.940Z,22.90
2023-04-27T02:43:06.149Z,22.45
2023-04-27T02:45:37.012Z,23.50
2023-04-27T02:48:05.982Z,23.33
2023-04-27T02:50:34.215Z,23.95
2023-04-27T02:53:01.497Z,23.83
2023-04-27T02:55:29.642Z,24.85
2023-04-27T02:57:56.232Z,25.15
2023-04-27T03:00:23.285Z,25.23
2023-04-27T03:02:50.046Z,26.08
2023-04-27T03:05:17.410Z,27.00
2023-04-27T03:07:44.119Z,23.80
2023-04-27T03:10:11.332Z,23.75
2023-04-27T03:12:37.966Z,23.73
2023-04-27T03:15:04.926Z,26.48
2023-04-27T03:17:31.656Z,25.83
2023-04-27T03:19:58.358Z,24.90
2023-04-27T03:22:25.546Z,25.27
2023-04-27T03:24:52.276Z,26.10
2023-04-27T03:27:18.942Z,25.35
2023-04-27T03:29:46.157Z,26.63
2023-04-27T03:32:12.774Z,26.83
2023-04-27T03:34:39.412Z,26.85
2023-04-27T03:37:06.325Z,27.65
2023-04-27T03:39:36.893Z,27.23
2023-04-27T03:42:03.986Z,27.60
2023-04-27T03:44:31.592Z,29.50
2023-04-27T03:46:58.288Z,27.35
2023-04-27T03:49:25.827Z,27.25
2023-04-27T03:51:52.622Z,31.10
2023-04-27T03:54:19.200Z,31.85
2023-04-27T03:56:46.530Z,31.30
2023-04-27T03:59:13.577Z,31.13
2023-04-27T04:01:46.915Z,29.77
2023-04-27T04:04:13.762Z,30.40
2023-04-27T04:06:42.164Z,30.35
2023-04-27T04:09:08.804Z,31.60
2023-04-27T04:11:35.747Z,30.02
2023-04-27T04:14:05.765Z,30.63
2023-04-27T04:16:33.749Z,33.40
2023-04-27T04:19:00.389Z,32.70
2023-04-27T04:21:27.014Z,32.55
2023-04-27T04:23:53.635Z,30.13
2023-04-27T04:26:20.475Z,32.17
2023-04-27T04:28:47.069Z,31.25
2023-04-27T04:31:15.605Z,33.90
2023-04-27T04:33:42.258Z,35.15
2023-04-27T04:36:09.220Z,36.10
2023-04-27T04:38:35.852Z,36.15
2023-04-27T04:41:02.594Z,35.97
2023-04-27T04:43:32.015Z,34.97
2023-04-27T04:45:58.886Z,33.88
2023-04-27T04:48:25.610Z,32.63
2023-04-27T04:50:52.667Z,33.28
2023-04-27T04:53:19.458Z,34.42
2023-04-27T04:55:46.168Z,33.95
2023-04-27T04:58:12.992Z,32.65
2023-04-27T05:00:39.920Z,32.60
2023-04-27T05:03:07.560Z,32.70
2023-04-27T05:05:34.378Z,33.35
2023-04-27T05:08:00.975Z,34.92
2023-04-27T05:10:27.582Z,32.97
2023-04-27T05:12:54.261Z,34.50
2023-04-27T05:15:21.245Z,31.75
2023-04-27T05:17:47.882Z,33.83
2023-04-27T05:20:14.700Z,32.83
2023-04-27T05:22:41.729Z,34.50
2023-04-27T05:25:08.682Z,34.97
2023-04-27T05:27:35.559Z,32.50
2023-04-27T05:30:02.454Z,31.38
2023-04-27T05:32:29.765Z,32.80
2023-04-27T05:34:56.432Z,31.90
2023-04-27T05:37:23.025Z,32.13
2023-04-27T05:39:49.633Z,31.63
2023-04-27T05:42:16.367Z,32.20
2023-04-27T05:44:43.157Z,30.85
2023-04-27T05:47:09.736Z,30.73
2023-04-27T05:49:36.983Z,30.50
2023-04-27T05:52:04.258Z,30.95
2023-04-27T05:54:30.982Z,30.25
2023-04-27T05:56:57.576Z,30.38
2023-04-27T05:59:24.237Z,30.55
2023-04-27T06:01:50.911Z,32.78
2023-04-27T06:04:17.716Z,28.58
2023-04-27T06:06:44.816Z,29.13
2023-04-27T06:09:11.657Z,27.00
2023-04-27T06:11:38.445Z,29.77
2023-04-27T06:14:05.263Z,28.13
2023-04-27T06:16:31.965Z,28.73
2023-04-27T06:18:58.599Z,27.60
2023-04-27T06:21:25.261Z,26.80
2023-04-27T06:23:51.856Z,25.52
2023-04-27T06:26:18.705Z,25.17
2023-04-27T06:28:45.366Z,23.55
2023-04-27T06:31:12.328Z,24.13
2023-04-27T06:33:38.973Z,30.13
2023-04-27T06:36:05.728Z,37.15
2023-04-27T06:38:32.372Z,43.70
2023-04-27T06:40:59.212Z,35.10
2023-04-27T06:43:25.969Z,32.55
2023-04-27T06:45:52.701Z,30.63
2023-04-27T06:48:19.564Z,29.95
2023-04-27T06:50:46.809Z,32.35
2023-04-27T06:53:13.781Z,29.20
2023-04-27T06:55:43.454Z,28.77
2023-04-27T06:58:11.121Z,30.48
2023-04-27T07:00:39.261Z,30.05
2023-04-27T07:03:06.269Z,29.90
2023-04-27T07:05:33.934Z,30.58
2023-04-27T07:08:03.927Z,31.40
2023-04-27T07:10:32.924Z,33.42
2023-04-27T07:12:59.616Z,33.95
2023-04-27T07:15:26.871Z,32.80
2023-04-27T07:17:56.472Z,37.55
2023-04-27T07:20:23.928Z,32.47
2023-04-27T07:22:50.732Z,32.40
2023-04-27T07:25:17.509Z,32.03
2023-04-27T07:27:45.154Z,34.00
2023-04-27T07:30:13.972Z,34.22
2023-04-27T07:32:44.119Z,33.67
2023-04-27T07:35:10.889Z,34.97
2023-04-27T07:37:38.213Z,34.72
2023-04-27T07:40:10.965Z,34.20
2023-04-27T07:42:39.638Z,34.75
2023-04-27T07:45:07.207Z,34.80
2023-04-27T07:47:34.045Z,36.15
2023-04-27T07:50:00.797Z,35.50
2023-04-27T07:52:27.541Z,35.90
2023-04-27T07:54:54.354Z,35.35
2023-04-27T07:57:21.053Z,34.30
2023-04-27T07:59:47.625Z,35.33
2023-04-27T08:02:19.866Z,36.60
2023-04-27T08:04:48.542Z,38.03
2023-04-27T08:07:17.643Z,37.38
2023-04-27T08:09:44.692Z,37.38
2023-04-27T08:12:11.593Z,34.25
2023-04-27T08:14:38.203Z,38.90
2023-04-27T08:17:04.927Z,36.92
2023-04-27T08:19:31.611Z,34.58
2023-04-27T08:21:58.285Z,39.75
2023-04-27T08:24:24.926Z,37.63
2023-04-27T08:26:51.589Z,38.42
2023-04-27T08:29:26.968Z,37.03
2023-04-27T08:31:56.852Z,37.83
2023-04-27T08:34:24.052Z,39.65
2023-04-27T08:36:50.885Z,37.40
2023-04-27T08:39:18.042Z,37.95
2023-04-27T08:41:44.806Z,38.85
2023-04-27T08:44:11.595Z,39.05
2023-04-27T08:46:38.987Z,38.42
2023-04-27T08:49:07.136Z,38.70
2023-04-27T08:51:34.507Z,39.85
2023-04-27T08:54:01.297Z,37.72
2023-04-27T08:56:29.890Z,37.80
2023-04-27T08:58:57.976Z,39.00
2023-04-27T09:01:26.119Z,37.35
2023-04-27T09:03:57.622Z,38.30
2023-04-27T09:06:35.642Z,36.88
2023-04-27T09:09:03.695Z,38.72
2023-04-27T09:11:35.754Z,38.00
2023-04-27T09:14:04.333Z,39.67
2023-04-27T09:16:31.803Z,39.55
2023-04-27T09:18:59.304Z,42.63
2023-04-27T09:21:27.975Z,40.97
2023-04-27T09:23:56.179Z,39.42
2023-04-27T09:26:25.667Z,39.20
2023-04-27T09:28:54.480Z,41.80
2023-04-27T09:31:21.374Z,41.45
2023-04-27T09:33:55.200Z,40.53
2023-04-27T09:36:22.540Z,40.10
2023-04-27T09:38:51.384Z,45.90
2023-04-27T09:41:18.503Z,46.97
2023-04-27T09:43:46.526Z,43.30
2023-04-27T09:46:14.507Z,46.50
2023-04-27T09:48:42.035Z,43.40
2023-04-27T09:51:08.972Z,46.10
2023-04-27T09:53:58.506Z,44.88
2023-04-27T09:56:52.055Z,45.67
2023-04-27T09:59:52.394Z,45.75
2023-04-27T10:02:24.878Z,44.88
2023-04-27T10:05:04.509Z,46.55
2023-04-27T10:07:32.447Z,47.70
2023-04-27T10:10:02.745Z,45.72
2023-04-27T10:12:36.564Z,46.70
2023-04-27T10:15:16.962Z,43.85
2023-04-27T10:17:53.561Z,44.00
2023-04-27T10:20:30.089Z,43.05
2023-04-27T10:22:57.121Z,43.58
2023-04-27T10:25:27.075Z,44.25
2023-04-27T10:27:55.966Z,44.13
2023-04-27T10:30:25.772Z,46.20
2023-04-27T10:32:54.938Z,48.13
2023-04-27T10:35:42.490Z,46.90
2023-04-27T10:38:11.032Z,46.67
2023-04-27T10:40:38.614Z,46.63
2023-04-27T10:43:14.295Z,45.45
2023-04-27T10:45:42.198Z,46.67
2023-04-27T10:48:09.409Z,45.78
2023-04-27T10:50:36.904Z,40.38
2023-04-27T10:53:06.464Z,40.70
2023-04-27T10:55:34.900Z,41.58
2023-04-27T10:58:02.412Z,40.22
2023-04-27T11:00:33.285Z,41.97
2023-04-27T11:03:16.745Z,41.55
2023-04-27T11:05:45.122Z,40.38
2023-04-27T11:08:17.346Z,42.78
2023-04-27T11:10:51.957Z,46.53
2023-04-27T11:13:23.357Z,46.08
2023-04-27T11:15:54.117Z,46.70
2023-04-27T11:18:22.749Z,45.67
2023-04-27T11:20:54.253Z,44.20
2023-04-27T11:23:36.834Z,47.33
2023-04-27T11:26:12.423Z,46.95
2023-04-27T11:28:39.132Z,45.10
2023-04-27T11:31:06.754Z,47.13
2023-04-27T11:33:33.742Z,45.72
2023-04-27T11:36:01.063Z,47.03
2023-04-27T11:38:33.812Z,46.03
2023-04-27T11:41:05.983Z,50.03
2023-04-27T11:43:33.513Z,48.40
2023-04-27T11:46:04.357Z,49.08
2023-04-27T11:48:31.826Z,48.38
2023-04-27T11:51:00.550Z,48.42
2023-04-27T11:53:35.609Z,48.10
2023-04-27T11:56:05.379Z,45.80
2023-04-27T11:58:36.548Z,45.50
2023-04-27T12:01:04.469Z,44.28
2023-04-27T12:03:32.116Z,44.55
2023-04-27T12:06:11.744Z,43.38
2023-04-27T12:08:46.024Z,44.60
2023-04-27T12:11:12.821Z,45.33
2023-04-27T12:13:39.514Z,44.55
2023-04-27T12:16:06.834Z,44.70
2023-04-27T12:18:33.697Z,44.03
2023-04-27T12:21:03.143Z,43.63
2023-04-27T12:23:30.193Z,44.25
2023-04-27T12:25:57.015Z,43.20
2023-04-27T12:28:23.715Z,44.97
2023-04-27T12:30:50.914Z,43.58
2023-04-27T12:33:17.900Z,43.30
2023-04-27T12:35:44.600Z,45.75
2023-04-27T12:38:11.289Z,45.35
2023-04-27T12:40:38.065Z,44.92
2023-04-27T12:43:05.175Z,45.15
2023-04-27T12:45:31.840Z,45.42
2023-04-27T12:48:03.819Z,47.30
2023-04-27T12:50:32.554Z,45.90
2023-04-27T12:53:00.022Z,46.88
2023-04-27T12:55:33.886Z,45.13
2023-04-27T12:58:02.014Z,46.45
2023-04-27T13:00:29.674Z,46.55
2023-04-27T13:02:57.230Z,47.10
2023-04-27T13:05:24.127Z,47.60
2023-04-27T13:07:50.831Z,49.72
2023-04-27T13:10:17.621Z,50.03
2023-04-27T13:12:44.389Z,49.58
2023-04-27T13:15:11.264Z,49.35
2023-04-27T13:17:38.114Z,50.72
2023-04-27T13:20:07.233Z,50.95
2023-04-27T13:22:34.151Z,48.42
2023-04-27T13:25:01.203Z,48.78
2023-04-27T13:27:28.468Z,48.78
2023-04-27T13:29:58.260Z,47.83
2023-04-27T13:32:25.040Z,49.03
2023-04-27T13:34:51.950Z,48.15
2023-04-27T13:37:18.940Z,50.70
2023-04-27T13:39:45.818Z,48.35
2023-04-27T13:42:12.635Z,48.67
2023-04-27T13:44:39.354Z,49.13
2023-04-27T13:47:06.751Z,49.22
2023-04-27T13:49:33.675Z,48.13
2023-04-27T13:52:00.716Z,49.05
2023-04-27T13:54:27.708Z,48.15
2023-04-27T13:56:54.474Z,47.78
2023-04-27T13:59:21.683Z,47.58
2023-04-27T14:01:48.537Z,47.15
2023-04-27T14:04:15.456Z,49.90
2023-04-27T14:06:42.312Z,50.05
2023-04-27T14:09:09.419Z,48.95
2023-04-27T14:11:48.482Z,47.83
2023-04-27T14:14:22.757Z,46.50
2023-04-27T14:16:51.225Z,46.78
2023-04-27T14:19:20.184Z,46.00
2023-04-27T14:21:48.108Z,45.72
2023-04-27T14:24:15.014Z,45.67
2023-04-27T14:26:46.392Z,46.85
2023-04-27T14:29:13.698Z,48.15
2023-04-27T14:31:40.973Z,47.55
2023-04-27T14:34:08.394Z,46.70
2023-04-27T14:36:35.760Z,47.20
2023-04-27T14:39:03.234Z,47.00
2023-04-27T14:41:30.269Z,47.30
2023-04-27T14:43:56.968Z,46.20
2023-04-27T14:46:23.814Z,48.95
2023-04-27T14:48:51.250Z,46.83
2023-04-27T14:51:18.151Z,49.83
2023-04-27T14:53:44.895Z,49.70
2023-04-27T14:56:11.994Z,50.47
2023-04-27T14:58:38.983Z,52.20
2023-04-27T15:01:06.759Z,53.20
2023-04-27T15:03:33.962Z,50.40
2023-04-27T15:06:01.836Z,52.25
2023-04-27T15:08:29.748Z,49.97
2023-04-27T15:10:59.878Z,50.65
2023-04-27T15:13:27.621Z,48.10
2023-04-27T15:15:59.058Z,47.72
2023-04-27T15:18:25.833Z,47.08
2023-04-27T15:20:56.733Z,47.88
2023-04-27T15:23:24.598Z,51.60
2023-04-27T15:25:54.796Z,50.25
2023-04-27T15:28:21.699Z,48.97
2023-04-27T15:30:49.291Z,48.88
2023-04-27T15:33:17.025Z,48.97
2023-04-27T15:35:43.862Z,47.13
2023-04-27T15:38:12.756Z,45.90
2023-04-27T15:40:39.953Z,46.08
2023-04-27T15:43:06.786Z,45.58
2023-04-27T15:45:33.695Z,46.78
2023-04-27T15:48:00.796Z,50.08
2023-04-27T15:50:27.542Z,47.25
2023-04-27T15:52:54.642Z,47.65
2023-04-27T15:55:22.160Z,48.00
2023-04-27T15:57:48.940Z,46.58
2023-04-27T16:00:16.894Z,47.47
2023-04-27T16:02:43.891Z,48.72
2023-04-27T16:05:11.115Z,47.38
2023-04-27T16:07:39.590Z,47.90
2023-04-27T16:10:07.366Z,49.33
2023-04-27T16:12:34.265Z,47.67
2023-04-27T16:15:01.076Z,48.28
2023-04-27T16:17:31.241Z,50.75
2023-04-27T16:19:58.500Z,47.15
2023-04-27T16:22:25.351Z,49.55
2023-04-27T16:24:52.083Z,50.45
2023-04-27T16:27:20.529Z,53.50
2023-04-27T16:29:47.448Z,52.10
2023-04-27T16:32:14.468Z,50.72
2023-04-27T16:34:41.471Z,54.88
2023-04-27T16:37:08.313Z,55.40
2023-04-27T16:39:35.691Z,54.10
2023-04-27T16:42:03.052Z,53.72
2023-04-27T16:44:29.794Z,54.15
2023-04-27T16:46:56.651Z,52.42
2023-04-27T16:49:23.545Z,54.50
2023-04-27T16:51:51.180Z,49.03
2023-04-27T16:54:17.960Z,53.00
2023-04-27T16:56:45.794Z,52.13
2023-04-27T16:59:12.877Z,53.90
2023-04-27T17:01:40.379Z,53.65
2023-04-27T17:04:07.425Z,53.95
2023-04-27T17:06:34.929Z,48.63
2023-04-27T17:09:02.064Z,53.15
2023-04-27T17:11:28.982Z,53.50
2023-04-27T17:13:55.673Z,56.15
2023-04-27T17:16:23.289Z,59.10
2023-04-27T17:18:50.378Z,59.22
2023-04-27T17:21:17.293Z,59.50
2023-04-27T17:23:46.462Z,57.10
2023-04-27T17:26:15.753Z,52.08
2023-04-27T17:28:42.428Z,48.42
2023-04-27T17:31:09.308Z,47.53
2023-04-27T17:33:36.034Z,48.10
2023-04-27T17:36:02.794Z,47.17
2023-04-27T17:38:29.431Z,46.17
2023-04-27T17:40:56.158Z,45.50
2023-04-27T17:43:22.876Z,46.00
2023-04-27T17:45:49.574Z,47.30
2023-04-27T17:48:16.891Z,46.85
2023-04-27T17:50:46.285Z,48.85
2023-04-27T17:53:15.206Z,46.83
2023-04-27T17:55:45.373Z,44.53
2023-04-27T17:58:12.383Z,44.55
2023-04-27T18:00:39.083Z,43.60
2023-04-27T18:03:06.381Z,43.42
2023-04-27T18:05:33.226Z,43.20
2023-04-27T18:07:59.817Z,43.90
2023-04-27T18:10:26.494Z,43.50
2023-04-27T18:12:53.145Z,42.25
2023-04-27T18:15:19.961Z,44.88
2023-04-27T18:17:46.681Z,43.97
2023-04-27T18:20:15.351Z,45.97
2023-04-27T18:22:42.056Z,45.85
2023-04-27T18:25:10.182Z,44.80
2023-04-27T18:27:39.661Z,45.38
2023-04-27T18:30:08.273Z,29.85
2023-04-27T18:32:35.421Z,30.25
2023-04-27T18:35:03.074Z,30.95
2023-04-27T18:37:29.760Z,31.08
2023-04-27T18:39:56.452Z,36.42
2023-04-27T18:42:23.446Z,32.67
2023-04-27T18:44:54.679Z,32.42
2023-04-27T18:47:21.608Z,33.03
2023-04-27T18:49:48.284Z,33.92
2023-04-27T18:52:15.264Z,33.30
2023-04-27T18:54:42.199Z,36.60
2023-04-27T18:57:08.973Z,37.35
2023-04-27T18:59:39.159Z,34.53
2023-04-27T19:02:07.262Z,32.70
2023-04-27T19:04:34.632Z,33.85
2023-04-27T19:07:02.070Z,32.20
2023-04-27T19:09:28.958Z,31.48
2023-04-27T19:12:02.695Z,42.65
2023-04-27T19:14:31.788Z,31.45
2023-04-27T19:16:58.508Z,32.83
2023-04-27T19:19:26.393Z,30.77
2023-04-27T19:21:53.279Z,31.77
2023-04-27T19:24:20.731Z,31.25
2023-04-27T19:26:47.642Z,36.85
2023-04-27T19:29:14.706Z,45.40
2023-04-27T19:32:06.290Z,38.97
2023-04-27T19:34:32.925Z,48.05
2023-04-27T19:36:59.560Z,36.72
2023-04-27T19:39:27.088Z,37.33
2023-04-27T19:41:53.756Z,32.60
2023-04-27T19:44:20.363Z,33.17
2023-04-27T19:46:47.077Z,35.15
2023-04-27T19:49:13.857Z,30.35
2023-04-27T19:51:42.291Z,33.17
2023-04-27T19:54:09.027Z,37.00
2023-04-27T19:56:37.895Z,30.77
2023-04-27T19:59:04.654Z,29.63
2023-04-27T20:01:31.761Z,28.52
2023-04-27T20:03:58.562Z,28.52
2023-04-27T20:06:25.487Z,28.33
2023-04-27T20:08:52.160Z,28.77
2023-04-27T20:11:18.881Z,29.10
2023-04-27T20:13:46.049Z,28.98
2023-04-27T20:16:12.805Z,28.40
2023-04-27T20:18:40.603Z,28.73
2023-04-27T20:21:07.652Z,28.10
2023-04-27T20:23:34.305Z,28.05
2023-04-27T20:26:00.928Z,27.52
2023-04-27T20:28:30.269Z,28.20
2023-04-27T20:30:57.198Z,27.80
2023-04-27T20:33:23.850Z,28.42
2023-04-27T20:35:54.438Z,28.13
2023-04-27T20:38:23.174Z,28.23
2023-04-27T20:40:53.468Z,28.50
2023-04-27T20:43:21.016Z,28.67
2023-04-27T20:45:47.749Z,28.80
2023-04-27T20:48:14.772Z,28.08
2023-04-27T20:50:41.392Z,28.83
2023-04-27T20:53:08.773Z,28.52
2023-04-27T20:55:35.409Z,28.02
2023-04-27T20:58:02.157Z,28.33
2023-04-27T21:00:28.796Z,29.30
2023-04-27T21:02:55.742Z,27.83
2023-04-27T21:05:22.534Z,28.23
2023-04-27T21:07:49.186Z,26.85
2023-04-27T21:10:16.135Z,27.63
2023-04-27T21:12:42.740Z,27.88
2023-04-27T21:15:09.640Z,28.08
2023-04-27T21:17:36.410Z,27.58
2023-04-27T21:20:03.259Z,28.88
2023-04-27T21:22:30.047Z,28.17
2023-04-27T21:24:56.690Z,29.00
2023-04-27T21:27:24.915Z,28.73
2023-04-27T21:29:51.568Z,28.40
2023-04-27T21:32:18.163Z,27.92
2023-04-27T21:34:44.858Z,28.15
2023-04-27T21:37:11.468Z,27.48
2023-04-27T21:39:38.119Z,28.13
2023-04-27T21:42:04.920Z,28.92
2023-04-27T21:44:31.543Z,29.35
2023-04-27T21:46:58.242Z,29.33
2023-04-27T21:49:24.856Z,28.33
2023-04-27T21:51:51.565Z,27.75
2023-04-27T21:54:19.733Z,28.58
2023-04-27T21:56:46.700Z,27.60
2023-04-27T21:59:14.920Z,27.77
2023-04-27T22:01:41.633Z,27.95
2023-04-27T22:04:09.715Z,28.45
2023-04-27T22:06:36.505Z,29.00
2023-04-27T22:09:04.727Z,28.05
2023-04-27T22:11:32.524Z,29.27
2023-04-27T22:13:59.245Z,27.55
2023-04-27T22:16:30.131Z,27.73
2023-04-27T22:18:57.366Z,28.13
2023-04-27T22:21:24.109Z,28.75
2023-04-27T22:23:50.759Z,27.67
2023-04-27T22:26:17.485Z,28.60
2023-04-27T22:28:44.152Z,28.08
2023-04-27T22:31:11.265Z,28.95
2023-04-27T22:33:38.039Z,28.92
2023-04-27T22:36:05.682Z,28.02
2023-04-27T22:38:33.689Z,27.95
2023-04-27T22:41:00.291Z,29.10
2023-04-27T22:43:26.932Z,28.77
2023-04-27T22:45:53.533Z,29.15
2023-04-27T22:48:20.476Z,29.13
2023-04-27T22:50:47.278Z,28.02
2023-04-27T22:53:14.441Z,29.60
2023-04-27T22:55:41.146Z,28.58
2023-04-27T22:58:07.820Z,28.27
2023-04-27T23:00:34.615Z,29.10
2023-04-27T23:03:01.426Z,28.55
2023-04-27T23:05:28.886Z,28.55
2023-04-27T23:07:55.556Z,29.55
2023-04-27T23:10:22.728Z,29.70
2023-04-27T23:12:50.579Z,29.55
2023-04-27T23:15:24.718Z,29.58
2023-04-27T23:17:51.415Z,29.30
2023-04-27T23:20:27.947Z,30.02
2023-04-27T23:22:56.051Z,29.60
2023-04-27T23:25:22.797Z,29.73
2023-04-27T23:27:51.313Z,29.42
2023-04-27T23:30:23.819Z,30.08
2023-04-27T23:32:50.655Z,29.98
2023-04-27T23:35:17.454Z,30.45
2023-04-27T23:37:44.220Z,30.48
2023-04-27T23:40:11.276Z,30.58
2023-04-27T23:42:37.908Z,30.17
2023-04-27T23:45:04.965Z,31.33
2023-04-27T23:47:33.643Z,30.73
2023-04-27T23:50:02.155Z,30.65
2023-04-27T23:52:29.214Z,31.98
2023-04-27T23:54:57.297Z,30.98
2023-04-27T23:57:24.040Z,30.63
2023-04-27T23:59:50.728Z,30.77
